Wampoo, Arkansas
Current Conditions -  °F | °C
As of 1:35 PM on Tuesday 21 Oct 2014 (Local Time) from KSGT Reporting Station
Clear Clear  
Wind Chill: 75°   Ceiling: Unl
Heat Index: 75°   Visibility: 10mi
Dew Point: 54°   Wind: 3mph
Humidity: 47%   Direction: 60°ENE
Pressure: 30.08"   Gusts: NA
Location:  34.5894°N, 91.9107°W
Report Text: KSGT 211835Z AUTO 06003KT 10SM CLR 24/12 A3008 RMK AO1
Loading
Personal Weather Stations






























Interactive Weather Map
Tropical Storm Tracking
New forecast layout! Learn more

10-Day Weather Forecast

Advertisements
Track Severe Weather on mobile